Data for 08/23/2006

Time Sea-Level Adjusted Pressure Absolute Pressure Temperature Relative Humidity Dew Point   
(mb) (inHg) (mb) (inHg) (C) (F) (%) (C) (F)
00:05 1019 30.09 848 25.04 19 66.1 31 1.4 34.5
00:10 1019 30.09 848 25.04 19.2 66.6 26 -0.4 31.4
00:15 1019 30.09 848 25.04 19.5 67.1 24 -1.5 29.3
00:20 1019 30.09 848 25.04 19.8 67.7 25 -0.9 30.5
00:25 1019 30.09 848 25.04 19.8 67.7 24 -1.4 29.4
00:30 1019 30.09 848 25.04 20 68.1 22 -2 28.3
00:35 1019 30.09 848 25.04 20.4 68.8 22 -1.8 28.8
00:40 1019 30.09 848 25.04 20.4 68.6 23 -1.6 29.2
00:45 1019 30.09 848 25.04 20.5 68.9 21 -2.2 28
00:50 1019 30.09 848 25.04 20.9 69.6 21 -2.1 28.3
00:55 1019 30.09 848 25.04 20.9 69.6 22 -1.3 29.7
01:00 1019 30.09 848 25.04 20.2 68.3 24 -0.6 30.9
01:05 1019 30.09 848 25.04 19.6 67.2 25 -0.9 30.4
01:10 1019 30.09 848 25.04 19.4 66.9 25 -1.2 29.9
01:15 1019 30.09 848 25.04 19.6 67.2 25 -1 30.1
01:20 1019 30.09 848 25.04 19.6 67.3 26 -0.5 31
01:25 1019 30.09 848 25.04 19 66.1 32 2.2 36
01:30 1019 30.09 848 25.04 18.7 65.6 27 -0.7 30.7
01:35 1019 30.09 849 25.07 18.7 65.6 32 2 35.5
01:40 1019 30.09 849 25.07 18.7 65.6 27 -0.6 31
01:45 1019 30.09 849 25.07 18.5 65.3 27 -0.5 31.1
01:50 1019 30.09 849 25.07 18.2 64.7 27 -0.8 30.5
01:55 1019 30.09 849 25.07 18.2 64.7 29 0.1 32.1
02:00 1020 30.12 849 25.07 18.3 65 27 -1 30.2
02:05 1020 30.12 849 25.07 18.6 65.4 27 -0.5 31.1
02:10 1019 30.09 849 25.07 18.7 65.7 26 -0.8 30.6
02:15 1019 30.09 849 25.07 18.8 65.8 31 1.4 34.5
02:20 1019 30.09 849 25.07 18.6 65.4 26 -0.9 30.3
02:25 1019 30.09 849 25.07 18.4 65.2 29 -0 32
02:30 1020 30.12 849 25.07 18.1 64.6 27 -0.9 30.4
02:35 1020 30.12 849 25.07 17.7 63.8 28 -0.9 30.4
02:40 1020 30.12 849 25.07 17.9 64.2 27 -1.2 29.8
02:45 1020 30.12 849 25.07 18.1 64.7 27 -1 30.1
02:50 1020 30.12 849 25.07 18.3 65 33 1.7 35.1
02:55 1020 30.12 849 25.07 18.1 64.6 27 -0.8 30.5
03:00 1020 30.12 849 25.07 17.6 63.7 29 -0.4 31.3
03:05 1020 30.12 849 25.07 16.9 62.5 31 -0.4 31.3
03:10 1020 30.12 849 25.07 16.4 61.6 31 -0.5 31.1
03:15 1020 30.12 849 25.07 16.6 61.8 29 -1.5 29.4
03:20 1020 30.12 849 25.07 17.3 63.1 28 -1.2 29.8
03:25 1020 30.12 849 25.07 17.8 64.1 28 -1 30.2
03:30 1020 30.12 849 25.07 17.7 63.9 28 -0.9 30.4
03:35 1020 30.12 849 25.07 17.2 63 29 -1 30.1
03:40 1020 30.12 849 25.07 17 62.6 28 -1.4 29.5
03:45 1020 30.12 849 25.07 17.4 63.3 27 -1.5 29.2
03:50 1020 30.12 849 25.07 17.2 63 34 1.5 34.6
03:55 1020 30.12 849 25.07 16.8 62.2 30 -0.7 30.7
04:00 1020 30.12 849 25.07 16.5 61.6 30 -1.1 30.1
04:05 1020 30.12 849 25.07 16.8 62.3 29 -1 30.1
04:10 1020 30.12 849 25.07 16.4 61.5 31 -0.9 30.4
04:15 1020 30.12 849 25.07 16.2 61.2 30 -1.3 29.6
04:20 1020 30.12 849 25.07 16.3 61.4 29 -1.5 29.3
04:25 1020 30.12 849 25.07 16.7 62 29 -1.4 29.4
04:30 1020 30.12 849 25.07 17.1 62.7 27 -1.7 28.9
04:35 1020 30.12 849 25.07 17.5 63.5 28 -1 30.2
04:40 1020 30.12 849 25.07 17.1 62.7 29 -0.9 30.3
04:45 1020 30.12 849 25.07 16.7 62.1 31 -0.5 31
04:50 1020 30.12 849 25.07 16.7 62 29 -1.2 29.9
04:55 1020 30.12 849 25.07 17.1 62.7 28 -1.7 29
05:00 1020 30.12 849 25.07 17.3 63.2 27 -1.6 29.1
05:05 1020 30.12 849 25.07 17.3 63.1 33 1.1 33.9
05:10 1020 30.12 849 25.07 16.9 62.4 29 -1 30.2
05:15 1020 30.12 849 25.07 16.6 61.8 30 -1 30.2
05:20 1020 30.12 849 25.07 16.7 62 30 -0.8 30.6
05:25 1020 30.12 849 25.07 16.2 61.1 31 -0.7 30.8
05:30 1020 30.12 849 25.07 16 60.8 30 -1.3 29.6
05:35 1020 30.12 849 25.07 16.1 61.1 30 -1.2 29.9
05:40 1020 30.12 849 25.07 16 60.8 31 -1.2 29.9
05:45 1020 30.12 849 25.07 16.3 61.3 29 -1.7 28.9
05:50 1020 30.12 849 25.07 16.3 61.4 32 -0.3 31.4
05:55 1020 30.12 849 25.07 16.4 61.5 28 -1.9 28.5
06:00 1020 30.12 849 25.07 16.6 62 29 -1.4 29.4
06:05 1020 30.12 849 25.07 16.6 61.8 30 -1.1 30.1
06:10 1020 30.12 849 25.07 16 60.9 32 -0.8 30.6
06:15 1020 30.12 849 25.07 15.5 60 35 0.4 32.8
06:20 1020 30.12 849 25.07 15.4 59.7 33 -0.7 30.8
06:25 1020 30.12 849 25.07 15.2 59.3 35 0.1 32.2
06:30 1020 30.12 849 25.07 14.9 58.9 35 -0.3 31.5
06:35 1020 30.12 849 25.07 14.6 58.4 36 -0.3 31.5
06:40 1020 30.12 849 25.07 14.2 57.5 52 4.6 40.3
06:45 1020 30.12 849 25.07 13.8 56.8 40 0.6 33
06:50 1020 30.12 849 25.07 13.2 55.7 40 -0.1 31.8
06:55 1020 30.12 849 25.07 13.2 55.8 39 -0.4 31.2
07:00 1020 30.12 850 25.1 13.8 56.9 35 -1.3 29.7
07:05 1020 30.12 850 25.1 14.4 57.8 36 -0.5 31.1
07:10 1020 30.12 850 25.1 14.3 57.8 35 -0.9 30.3
07:15 1020 30.12 850 25.1 14.7 58.5 34 -0.7 30.7
07:20 1020 30.12 850 25.1 14.7 58.5 34 -0.7 30.7
07:25 1020 30.12 850 25.1 14.7 58.4 33 -1.4 29.5
07:30 1020 30.12 850 25.1 15.1 59.2 33 -0.8 30.6
07:35 1020 30.12 850 25.1 14.8 58.7 36 -0.2 31.7
07:40 1020 30.12 850 25.1 14.7 58.5 34 -0.8 30.6
07:45 1020 30.12 850 25.1 14.8 58.7 34 -0.8 30.5
07:50 1020 30.12 850 25.1 14.8 58.7 35 -0.2 31.6
07:55 1020 30.12 850 25.1 14.7 58.4 36 -0.3 31.4
08:00 1020 30.12 850 25.1 15.3 59.5 31 -1.5 29.3
08:05 1020 30.12 850 25.1 15.7 60.2 34 -0 31.9
08:10 1020 30.12 850 25.1 15.6 60.1 34 -0.2 31.7
08:15 1021 30.15 850 25.1 15.7 60.2 35 0.3 32.5
08:20 1020 30.12 850 25.1 15.8 60.4 34 0.1 32.2
08:25 1020 30.12 850 25.1 16.1 60.9 43 3.5 38.2
08:30 1020 30.12 850 25.1 16.3 61.3 34 0.6 33
08:35 1020 30.12 850 25.1 16.6 61.8 34 0.9 33.6
08:40 1020 30.12 850 25.1 16.9 62.4 34 1.1 34.1
08:45 1020 30.12 850 25.1 17 62.5 34 1.1 34
08:50 1020 30.12 850 25.1 17.3 63.1 35 1.6 35
08:55 1020 30.12 850 25.1 17.7 63.9 33 1.2 34.1
09:00 1020 30.12 850 25.1 18.2 64.8 34 2.1 35.7
09:05 1020 30.12 850 25.1 18.8 65.8 32 1.9 35.4
09:10 1020 30.12 850 25.1 19.2 66.6 31 1.9 35.4
09:15 1020 30.12 849 25.07 19.7 67.5 28 1.1 34
09:20 1020 30.12 849 25.07 20.1 68.2 30 1.9 35.5
09:25 1020 30.12 849 25.07 20.6 69 28 1.7 35.1
09:30 1020 30.12 849 25.07 20.6 69.1 29 2 35.5
09:35 1020 30.12 849 25.07 21.2 70.1 27 1.4 34.5
09:40 1020 30.12 849 25.07 21.6 70.9 26 1.5 34.7
09:45 1020 30.12 849 25.07 22.1 71.7 24 1 33.8
09:50 1020 30.12 849 25.07 22.7 72.8 25 1.6 34.9
09:55 1020 30.12 849 25.07 23.1 73.5 26 2.5 36.5
10:00 1020 30.12 849 25.07 23.1 73.5 25 2.1 35.7
10:05 1020 30.12 849 25.07 22.8 73.1 25 2.1 35.7
10:10 1020 30.12 849 25.07 22.6 72.6 24 1.1 33.9
10:15 1020 30.12 849 25.07 22.9 73.2 22 0.3 32.6
10:20 1020 30.12 849 25.07 23.4 74.2 22 0.9 33.6
10:25 1020 30.12 849 25.07 23.1 73.6 22 0.6 33
10:30 1019 30.09 849 25.07 23.2 73.7 23 0.9 33.6
10:35 1019 30.09 849 25.07 23.8 74.9 23 1.6 34.8
10:40 1019 30.09 849 25.07 23.1 73.6 23 1.1 33.9
10:45 1019 30.09 849 25.07 23 73.4 23 1.2 34.1
10:50 1019 30.09 849 25.07 23.8 74.9 22 1 33.8
10:55 1019 30.09 848 25.04 24.5 76.2 21 1.1 34
11:00 1019 30.09 848 25.04 24.9 76.8 20 0.8 33.4
11:05 1019 30.09 848 25.04 25.2 77.3 20 0.8 33.4
11:10 1019 30.09 848 25.04 25.6 78 19 0.6 33.2
11:15 1019 30.09 848 25.04 25.8 78.4 19 0.4 32.7
11:20 1019 30.09 848 25.04 25.8 78.5 20 1.3 34.4
11:25 1019 30.09 848 25.04 26.1 79.1 19 1.1 34
11:30 1019 30.09 848 25.04 26.6 79.8 18 0.7 33.3
11:35 1019 30.09 848 25.04 26.5 79.6 19 1 33.8
11:40 1019 30.09 848 25.04 26.4 79.5 20 1.9 35.4
11:45 1019 30.09 848 25.04 26.6 79.8 20 2 35.6
11:50 1019 30.09 848 25.04 26.9 80.3 19 1.5 34.6
11:55 1019 30.09 848 25.04 27.2 80.9 19 1.7 35.1
12:00 1019 30.09 848 25.04 27.5 81.5 18 1.7 35.1
12:05 1019 30.09 848 25.04 27.1 80.7 18 1.3 34.3
12:10 1019 30.09 848 25.04 26.2 79.2 20 1.5 34.7
12:15 1019 30.09 848 25.04 26.8 80.3 19 1.3 34.3
12:20 1018 30.06 848 25.04 27.2 81 20 2.3 36.2
12:25 1018 30.06 848 25.04 27.8 82 19 2 35.6
12:30 1018 30.06 848 25.04 28 82.4 18 1.9 35.3
12:35 1018 30.06 847 25.01 28.1 82.6 18 2.1 35.8
12:40 1018 30.06 847 25.01 27.8 82.1 18 2 35.6
12:45 1018 30.06 847 25.01 28.5 83.3 17 1.7 35.1
12:50 1018 30.06 847 25.01 29.2 84.5 15 0.5 32.8
12:55 1018 30.06 847 25.01 29.1 84.4 16 0.8 33.5
13:00 1018 30.06 847 25.01 28.3 82.9 18 1.9 35.5
13:05 1018 30.06 847 25.01 27.6 81.7 18 1.2 34.2
13:10 1018 30.06 847 25.01 27.8 82.1 18 1.4 34.6
13:15 1018 30.06 847 25.01 27.5 81.4 19 2.3 36.2
13:20 1018 30.06 847 25.01 28 82.4 19 2.7 36.9
13:25 1018 30.06 847 25.01 29 84.2 16 0.9 33.6
13:30 1017 30.03 847 25.01 28.1 82.5 19 2.5 36.4
13:35 1017 30.03 846 24.98 27.7 81.8 17 1 33.8
13:40 1017 30.03 846 24.98 27.4 81.2 18 0.9 33.6
13:45 1017 30.03 846 24.98 27.7 81.9 17 0.5 32.9
13:50 1017 30.03 846 24.98 27.5 81.4 18 1 33.8
13:55 1017 30.03 846 24.98 28 82.4 15 -0.6 31
14:00 1017 30.03 846 24.98 28.3 82.9 15 -0.1 31.8
14:05 1017 30.03 846 24.98 28.7 83.6 16 0.4 32.6
14:10 1017 30.03 846 24.98 28.8 83.8 14 -0.7 30.7
14:15 1016 30 846 24.98 29.3 84.8 14 -0.6 30.8
14:20 1016 30 846 24.98 30.2 86.3 13 -0.7 30.7
14:25 1016 30 845 24.95 30.2 86.3 13 -0.7 30.7
14:30 1016 30 845 24.95 30.4 86.8 13 -0.7 30.7
14:35 1016 30 845 24.95 30.7 87.3 13 -0.2 31.6
14:40 1016 30 845 24.95 30.4 86.8 12 -1.5 29.2
14:45 1016 30 845 24.95 30.6 87.1 12 -1.2 29.9
14:50 1016 30 845 24.95 30.6 87 12 -1.6 29.2
14:55 1016 30 845 24.95 30.4 86.6 13 -1 30.2
15:00 1016 30 845 24.95 30.1 86.2 14 -0.2 31.7
15:05 1015 29.97 845 24.95 30.4 86.7 13 -1.1 30
15:10 1015 29.97 845 24.95 30.5 86.8 12 -1.6 29.1
15:15 1015 29.97 844 24.92 30.2 86.3 13 -1.2 29.9
15:20 1015 29.97 844 24.92 30.5 86.9 12 -1.9 28.5
15:25 1015 29.97 844 24.92 30.8 87.5 12 -2.1 28.3
15:30 1015 29.97 844 24.92 30.5 87 11 -2.7 27.1
15:35 1015 29.97 844 24.92 30.1 86.1 11 -3.1 26.3
15:40 1015 29.97 844 24.92 30.1 86.1 12 -2.4 27.8
15:45 1015 29.97 844 24.92 30.2 86.3 12 -1.6 29
15:50 1015 29.97 844 24.92 31 87.7 12 -0.9 30.3
15:55 1015 29.97 844 24.92 31 87.8 12 -1.9 28.6
16:00 1015 29.97 844 24.92 30.9 87.6 12 -2 28.4
16:05 1015 29.97 844 24.92 31.1 88 11 -2.1 28.2
16:10 1015 29.97 844 24.92 31 87.7 12 -0.9 30.4
16:15 1015 29.97 844 24.92 30.3 86.6 12 -2.2 28
16:20 1015 29.97 844 24.92 30.1 86.1 11 -2.9 26.8
16:25 1015 29.97 844 24.92 30 86 13 -1.5 29.3
16:30 1015 29.97 844 24.92 29.6 85.2 12 -2.6 27.4
16:35 1014 29.94 844 24.92 29.5 85.2 12 -2.9 26.7
16:40 1014 29.94 844 24.92 29.3 84.7 13 -2.2 28.1
16:45 1014 29.94 844 24.92 29.4 84.9 11 -3.5 25.7
16:50 1014 29.94 844 24.92 29.3 84.7 12 -3 26.6
16:55 1014 29.94 844 24.92 29.4 85 12 -2.4 27.6
17:00 1014 29.94 843 24.89 29.6 85.4 13 -1.3 29.6
17:05 1014 29.94 843 24.89 29.5 85.2 12 -2.9 26.7
17:10 1014 29.94 843 24.89 29.9 85.9 12 -2.6 27.4
17:15 1014 29.94 843 24.89 30.1 86.3 11 -3.3 26.1
17:20 1014 29.94 843 24.89 30.4 86.7 11 -2.7 27.1
17:25 1014 29.94 843 24.89 29.8 85.7 11 -3.1 26.4
17:30 1014 29.94 843 24.89 29.9 85.9 12 -2 28.4
17:35 1014 29.94 843 24.89 29.9 85.8 13 -1.5 29.3
17:40 1013 29.91 843 24.89 30.4 86.6 12 -2 28.5
17:45 1013 29.91 843 24.89 30.5 86.8 12 -1.5 29.3
17:50 1013 29.91 842 24.86 30.3 86.5 12 -2.3 27.9
17:55 1013 29.91 842 24.86 29.6 85.3 11 -3.6 25.5
18:00 1013 29.91 842 24.86 29.2 84.5 12 -3.1 26.4
18:05 1013 29.91 842 24.86 28.9 84.1 12 -3 26.7
18:10 1013 29.91 842 24.86 28.9 83.9 13 -2.3 27.9
18:15 1013 29.91 842 24.86 28.9 84.1 12 -3.5 25.7
18:20 1013 29.91 842 24.86 28.9 84 12 -2.9 26.9
18:25 1013 29.91 842 24.86 28.8 83.8 14 -1.1 29.9
18:30 1013 29.91 842 24.86 28.8 83.9 12 -3 26.7
18:35 1013 29.91 842 24.86 29 84.2 12 -2.5 27.5
18:40 1013 29.91 842 24.86 29 84.2 12 -2.7 27.1
18:45 1013 29.91 842 24.86 28.9 83.9 11 -4 24.8
18:50 1013 29.91 842 24.86 29 84.2 13 -2.3 27.9
18:55 1012 29.88 842 24.86 29.1 84.3 12 -2.5 27.5
19:00 1013 29.91 842 24.86 28.9 83.9 14 -1.4 29.4
19:05 1013 29.91 842 24.86 28.2 82.8 15 -0.9 30.4
19:10 1012 29.88 842 24.86 27.7 81.8 14 -1.7 28.9
19:15 1013 29.91 842 24.86 27.3 81.1 15 -1.7 29
19:20 1013 29.91 842 24.86 27.1 80.9 15 -1.5 29.4
19:25 1013 29.91 842 24.86 27 80.6 16 -1.1 30.1
19:30 1013 29.91 842 24.86 26.8 80.3 16 -1 30.1
19:35 1013 29.91 842 24.86 26.8 80.2 16 -1.2 29.8
19:40 1013 29.91 842 24.86 26.9 80.3 14 -2.2 28
19:45 1013 29.91 842 24.86 26.9 80.4 13 -3.2 26.2
19:50 1013 29.91 842 24.86 26.8 80.3 15 -2.1 28.2
19:55 1013 29.91 842 24.86 26.6 79.9 14 -2.4 27.7
20:00 1013 29.91 842 24.86 26.5 79.6 14 -2.5 27.6
20:05 1013 29.91 842 24.86 26.2 79.2 15 -2.6 27.4
20:10 1013 29.91 842 24.86 26 78.9 14 -2.8 27
20:15 1013 29.91 842 24.86 25.9 78.6 14 -2.9 26.8
20:20 1013 29.91 843 24.89 25.7 78.3 15 -2.2 28
20:25 1014 29.94 843 24.89 25.7 78.3 16 -2 28.3
20:30 1013 29.91 843 24.89 25.9 78.5 15 -2.6 27.4
20:35 1013 29.91 842 24.86 25.7 78.3 17 -0.6 30.9
20:40 1013 29.91 842 24.86 24.5 76 20 0 32.1
20:45 1013 29.91 842 24.86 24.1 75.3 18 -1.5 29.4
20:50 1013 29.91 842 24.86 24.6 76.2 16 -3.1 26.5
20:55 1013 29.91 842 24.86 25 76.9 16 -2.7 27.1
21:00 1013 29.91 843 24.89 25.1 77.1 16 -2.3 27.8
21:05 1013 29.91 842 24.86 25 77.1 16 -2.5 27.5
21:10 1013 29.91 842 24.86 25.1 77.1 16 -2.6 27.4
21:15 1013 29.91 842 24.86 25 77 16 -2.4 27.8
21:20 1013 29.91 842 24.86 24.9 76.9 15 -2.9 26.7
21:25 1013 29.91 842 24.86 24.9 76.9 19 0.2 32.3
21:30 1013 29.91 843 24.89 24 75.2 17 -2.7 27.2
21:35 1013 29.91 842 24.86 24.5 76.2 14 -4.3 24.3
21:40 1013 29.91 842 24.86 25 77 14 -4 24.7
21:45 1013 29.91 843 24.89 25.5 77.9 16 -1.9 28.7
21:50 1013 29.91 843 24.89 25.2 77.3 15 -2.7 27.1
21:55 1014 29.94 843 24.89 24.9 76.7 15 -3.1 26.5
22:00 1014 29.94 843 24.89 25 77 16 -2.6 27.3
22:05 1014 29.94 843 24.89 25 76.9 15 -3.1 26.5
22:10 1013 29.91 843 24.89 24.7 76.4 16 -2.6 27.3
22:15 1013 29.91 842 24.86 24.3 75.8 15 -3.4 25.9
22:20 1013 29.91 842 24.86 24.2 75.5 20 -0.3 31.5
22:25 1013 29.91 843 24.89 23.3 73.9 22 0.6 33.1
22:30 1013 29.91 843 24.89 23.1 73.5 20 -0.8 30.6
22:35 1014 29.94 843 24.89 22.6 72.8 22 -0.2 31.6
22:40 1014 29.94 843 24.89 22.4 72.3 22 -0.5 31.1
22:45 1014 29.94 843 24.89 23 73.4 19 -1.8 28.7
22:50 1014 29.94 843 24.89 24 75.1 15 -3.8 25.1
22:55 1014 29.94 843 24.89 24.2 75.6 16 -2.8 27
23:00 1014 29.94 843 24.89 23.8 74.8 18 -1.4 29.4
23:05 1014 29.94 843 24.89 23.6 74.5 18 -1.8 28.8
23:10 1014 29.94 843 24.89 23.5 74.2 19 -1.1 29.9
23:15 1014 29.94 843 24.89 23.2 73.8 19 -1.1 30
23:20 1014 29.94 843 24.89 23.2 73.8 19 -1.6 29.2
23:25 1014 29.94 844 24.92 23.3 74 19 -1.6 29.1
23:30 1015 29.97 844 24.92 23.2 73.8 19 -1.4 29.4
23:35 1015 29.97 844 24.92 23.1 73.7 20 -0.9 30.3
23:40 1015 29.97 844 24.92 22.9 73.3 20 -1 30.2
23:45 1015 29.97 844 24.92 22.9 73.2 20 -0.8 30.6
23:50 1015 29.97 844 24.92 22.6 72.6 21 -0.8 30.6
23:55 1015 29.97 844 24.92 22.1 71.8 23 0 32
24:00 1015 29.97 844 24.92 21.8 71.3 22 -0.5 31.2